createdAt,value
2019-05-25T00:00:46.616Z,10.70
2019-05-25T00:03:15.769Z,10.70
2019-05-25T00:05:44.857Z,10.70
2019-05-25T00:08:14.391Z,10.70
2019-05-25T00:10:43.593Z,10.70
2019-05-25T00:13:12.950Z,10.60
2019-05-25T00:15:42.041Z,10.70
2019-05-25T00:18:11.197Z,10.70
2019-05-25T00:20:40.409Z,10.70
2019-05-25T00:23:09.585Z,10.60
2019-05-25T00:25:38.731Z,10.60
2019-05-25T00:28:07.893Z,10.70
2019-05-25T00:30:37.053Z,10.60
2019-05-25T00:33:06.161Z,10.50
2019-05-25T00:35:35.294Z,10.50
2019-05-25T00:38:04.464Z,10.50
2019-05-25T00:40:33.561Z,10.50
2019-05-25T00:43:02.776Z,10.50
2019-05-25T00:45:31.889Z,10.40
2019-05-25T00:48:00.981Z,10.50
2019-05-25T00:50:30.257Z,10.40
2019-05-25T00:52:59.457Z,10.50
2019-05-25T00:55:28.608Z,10.40
2019-05-25T00:57:57.713Z,10.50
2019-05-25T01:00:26.810Z,10.50
2019-05-25T01:02:55.997Z,10.50
2019-05-25T01:05:25.185Z,10.50
2019-05-25T01:07:54.361Z,10.50
2019-05-25T01:10:23.485Z,10.50
2019-05-25T01:12:52.662Z,10.50
2019-05-25T01:15:21.826Z,10.50
2019-05-25T01:17:51.057Z,10.50
2019-05-25T01:20:20.223Z,10.50
2019-05-25T01:22:49.437Z,10.50
2019-05-25T01:25:18.848Z,10.40
2019-05-25T01:27:48.093Z,10.50
2019-05-25T01:30:17.321Z,10.50
2019-05-25T01:32:46.407Z,10.50
2019-05-25T01:35:15.564Z,10.40
2019-05-25T01:37:48.241Z,10.40
2019-05-25T01:40:15.473Z,10.40
2019-05-25T01:42:44.641Z,10.40
2019-05-25T01:45:15.378Z,10.40
2019-05-25T01:47:47.954Z,10.40
2019-05-25T01:50:17.279Z,10.40
2019-05-25T01:52:46.434Z,10.40
2019-05-25T01:55:15.625Z,10.30
2019-05-25T01:57:44.752Z,10.40
2019-05-25T02:00:13.957Z,10.40
2019-05-25T02:02:43.041Z,10.40
2019-05-25T02:05:12.243Z,10.40
2019-05-25T02:07:41.405Z,10.40
2019-05-25T02:10:10.506Z,10.40
2019-05-25T02:12:39.695Z,10.40
2019-05-25T02:15:08.848Z,10.40
2019-05-25T02:17:38.081Z,10.40
2019-05-25T02:20:08.109Z,10.40
2019-05-25T02:22:37.264Z,10.40
2019-05-25T02:25:16.871Z,10.40
2019-05-25T02:27:37.325Z,10.40
2019-05-25T02:30:06.535Z,10.40
2019-05-25T02:32:35.689Z,10.40
2019-05-25T02:35:05.315Z,10.40
2019-05-25T02:37:34.489Z,10.40
2019-05-25T02:40:03.814Z,10.40
2019-05-25T02:42:32.995Z,10.40
2019-05-25T02:45:02.197Z,10.40
2019-05-25T02:47:31.373Z,10.40
2019-05-25T02:50:00.449Z,10.40
2019-05-25T02:52:29.683Z,10.40
2019-05-25T02:54:58.874Z,10.40
2019-05-25T02:57:28.033Z,10.40
2019-05-25T02:59:57.141Z,10.40
2019-05-25T03:02:27.402Z,10.40
2019-05-25T03:04:56.662Z,10.40
2019-05-25T03:07:25.916Z,10.50
2019-05-25T03:09:55.173Z,10.50
2019-05-25T03:12:24.390Z,10.50
2019-05-25T03:14:53.541Z,10.50
2019-05-25T03:17:22.634Z,10.40
2019-05-25T03:19:51.842Z,10.50
2019-05-25T03:22:21.037Z,10.50
2019-05-25T03:24:50.207Z,10.50
2019-05-25T03:27:19.588Z,10.50
2019-05-25T03:29:48.757Z,10.50
2019-05-25T03:32:18.294Z,10.50
2019-05-25T03:34:47.477Z,10.60
2019-05-25T03:37:16.910Z,10.50
2019-05-25T03:39:49.082Z,10.60
2019-05-25T03:42:18.389Z,10.50
2019-05-25T03:44:47.503Z,10.50
2019-05-25T03:47:16.682Z,10.50
2019-05-25T03:49:45.850Z,10.50
2019-05-25T03:52:15.024Z,10.60
2019-05-25T03:54:44.101Z,10.60
2019-05-25T03:57:13.225Z,10.70
2019-05-25T03:59:42.425Z,10.60
2019-05-25T04:02:11.622Z,10.70
2019-05-25T04:04:40.791Z,10.60
2019-05-25T04:07:09.949Z,10.60
2019-05-25T04:09:39.053Z,10.60
2019-05-25T04:12:08.225Z,10.60
2019-05-25T04:14:37.383Z,10.60
2019-05-25T04:17:06.557Z,10.70
2019-05-25T04:19:35.862Z,10.70
2019-05-25T04:22:05.013Z,10.70
2019-05-25T04:24:34.101Z,10.70
2019-05-25T04:27:03.230Z,10.80
2019-05-25T04:29:32.555Z,10.80
2019-05-25T04:32:01.726Z,10.80
2019-05-25T04:34:30.905Z,10.80
2019-05-25T04:37:01.426Z,10.80
2019-05-25T04:39:30.595Z,10.80
2019-05-25T04:41:59.765Z,10.90
2019-05-25T04:44:28.929Z,10.80
2019-05-25T04:46:58.165Z,10.90
2019-05-25T04:49:27.254Z,10.90
2019-05-25T04:51:56.538Z,11.00
2019-05-25T04:54:25.756Z,10.90
2019-05-25T04:56:54.883Z,10.90
2019-05-25T04:59:24.055Z,10.90
2019-05-25T05:01:53.249Z,10.80
2019-05-25T05:04:22.421Z,10.90
2019-05-25T05:06:51.610Z,10.90
2019-05-25T05:09:21.801Z,10.90
2019-05-25T05:11:52.803Z,11.00
2019-05-25T05:14:22.101Z,11.00
2019-05-25T05:16:51.306Z,11.00
2019-05-25T05:19:20.465Z,10.90
2019-05-25T05:21:49.637Z,10.90
2019-05-25T05:24:18.986Z,10.90
2019-05-25T05:26:55.650Z,10.90
2019-05-25T05:29:19.216Z,10.90
2019-05-25T05:31:48.409Z,10.90
2019-05-25T05:34:17.605Z,11.00
2019-05-25T05:36:46.725Z,11.00
2019-05-25T05:39:15.997Z,11.00
2019-05-25T05:41:45.189Z,11.10
2019-05-25T05:44:14.282Z,11.10
2019-05-25T05:46:43.491Z,11.20
2019-05-25T05:49:12.705Z,11.20
2019-05-25T05:51:41.873Z,11.30
2019-05-25T05:54:10.969Z,11.30
2019-05-25T05:56:40.183Z,11.30
2019-05-25T05:59:09.341Z,11.30
2019-05-25T06:01:38.493Z,11.40
2019-05-25T06:04:07.677Z,11.40
2019-05-25T06:06:36.777Z,11.50
2019-05-25T06:09:06.989Z,11.60
2019-05-25T06:11:36.089Z,11.50
2019-05-25T06:14:05.350Z,11.50
2019-05-25T06:16:34.526Z,11.50
2019-05-25T06:19:03.613Z,11.50
2019-05-25T06:21:32.724Z,11.50
2019-05-25T06:24:01.886Z,11.50
2019-05-25T06:26:31.058Z,11.50
2019-05-25T06:29:00.253Z,11.50
2019-05-25T06:31:29.473Z,11.50
2019-05-25T06:33:58.628Z,11.70
2019-05-25T06:36:27.713Z,11.80
2019-05-25T06:38:56.804Z,12.00
2019-05-25T06:41:26.009Z,12.20
2019-05-25T06:43:55.097Z,12.10
2019-05-25T06:46:24.213Z,12.10
2019-05-25T06:48:53.380Z,11.80
2019-05-25T06:51:22.532Z,11.80
2019-05-25T06:53:51.697Z,11.80
2019-05-25T06:56:20.828Z,11.80
2019-05-25T06:58:50.061Z,11.80
2019-05-25T07:01:20.357Z,11.70
2019-05-25T07:03:49.553Z,11.70
2019-05-25T07:06:18.933Z,11.70
2019-05-25T07:08:48.069Z,11.70
2019-05-25T07:11:17.269Z,11.80
2019-05-25T07:13:46.447Z,11.80
2019-05-25T07:16:15.626Z,11.90
2019-05-25T07:18:44.797Z,11.90
2019-05-25T07:21:13.973Z,12.00
2019-05-25T07:23:43.133Z,12.00
2019-05-25T07:26:12.466Z,12.00
2019-05-25T07:28:41.669Z,12.00
2019-05-25T07:31:10.856Z,12.10
2019-05-25T07:33:40.145Z,12.20
2019-05-25T07:36:09.309Z,12.40
2019-05-25T07:38:38.492Z,12.30
2019-05-25T07:41:07.733Z,12.30
2019-05-25T07:43:36.908Z,12.40
2019-05-25T07:46:06.100Z,12.40
2019-05-25T07:48:35.357Z,12.40
2019-05-25T07:51:04.445Z,12.30
2019-05-25T07:53:33.589Z,12.40
2019-05-25T07:56:02.768Z,12.40
2019-05-25T07:58:31.930Z,12.40
2019-05-25T08:01:01.115Z,12.50
2019-05-25T08:03:30.273Z,12.60
2019-05-25T08:05:59.457Z,12.70
2019-05-25T08:08:28.594Z,12.90
2019-05-25T08:10:57.769Z,12.90
2019-05-25T08:13:26.921Z,12.90
2019-05-25T08:15:56.022Z,12.80
2019-05-25T08:18:25.192Z,12.90
2019-05-25T08:20:54.377Z,13.00
2019-05-25T08:23:23.536Z,13.00
2019-05-25T08:25:52.714Z,13.10
2019-05-25T08:28:32.067Z,13.10
2019-05-25T08:30:52.730Z,13.30
2019-05-25T08:33:22.009Z,13.30
2019-05-25T08:35:51.197Z,13.30
2019-05-25T08:38:20.450Z,13.30
2019-05-25T08:40:49.605Z,13.40
2019-05-25T08:43:19.017Z,13.50
2019-05-25T08:45:48.170Z,13.50
2019-05-25T08:48:17.325Z,13.50
2019-05-25T08:50:46.493Z,13.40
2019-05-25T08:53:15.714Z,13.40
2019-05-25T08:55:44.873Z,13.30
2019-05-25T08:58:14.085Z,13.30
2019-05-25T09:00:43.241Z,13.40
2019-05-25T09:03:12.373Z,13.40
2019-05-25T09:05:41.566Z,13.50
2019-05-25T09:08:10.791Z,13.60
2019-05-25T09:10:39.985Z,13.70
2019-05-25T09:13:09.141Z,13.70
2019-05-25T09:15:38.317Z,13.90
2019-05-25T09:18:07.519Z,13.90
2019-05-25T09:20:36.693Z,14.00
2019-05-25T09:23:05.869Z,13.80
2019-05-25T09:25:34.954Z,13.70
2019-05-25T09:28:04.203Z,13.80
2019-05-25T09:30:33.302Z,13.80
2019-05-25T09:33:02.476Z,13.80
2019-05-25T09:35:31.636Z,13.80
2019-05-25T09:38:00.821Z,13.80
2019-05-25T09:40:29.921Z,13.80
2019-05-25T09:42:59.081Z,13.80
2019-05-25T09:45:28.268Z,13.80
2019-05-25T09:47:57.636Z,13.90
2019-05-25T09:50:26.801Z,14.10
2019-05-25T09:52:55.906Z,14.40
2019-05-25T09:55:25.081Z,14.40
2019-05-25T09:57:54.357Z,14.60
2019-05-25T10:00:23.537Z,14.70
2019-05-25T10:02:52.810Z,14.70
2019-05-25T10:05:21.977Z,15.10
2019-05-25T10:07:51.275Z,15.20
2019-05-25T10:10:20.537Z,15.20
2019-05-25T10:12:50.031Z,15.00
2019-05-25T10:15:19.282Z,14.80
2019-05-25T10:17:48.747Z,14.80
2019-05-25T10:20:18.101Z,14.90
2019-05-25T10:22:47.210Z,14.90
2019-05-25T10:25:17.281Z,14.90
2019-05-25T10:27:46.504Z,15.00
2019-05-25T10:30:15.635Z,15.10
2019-05-25T10:32:44.805Z,15.10
2019-05-25T10:35:13.902Z,14.90
2019-05-25T10:37:43.061Z,14.90
2019-05-25T10:40:12.189Z,15.00
2019-05-25T10:42:41.349Z,15.00
2019-05-25T10:45:10.526Z,15.40
2019-05-25T10:47:39.709Z,15.70
2019-05-25T10:50:09.818Z,16.00
2019-05-25T10:52:39.002Z,16.30
2019-05-25T10:55:08.305Z,16.60
2019-05-25T10:57:37.477Z,16.90
2019-05-25T11:00:06.918Z,16.90
2019-05-25T11:02:36.081Z,16.90
2019-05-25T11:05:05.657Z,16.80
2019-05-25T11:07:34.881Z,16.70
2019-05-25T11:10:04.433Z,16.80
2019-05-25T11:12:33.599Z,16.80
2019-05-25T11:15:02.785Z,16.90
2019-05-25T11:17:31.969Z,16.90
2019-05-25T11:20:01.157Z,17.00
2019-05-25T11:22:30.241Z,17.00
2019-05-25T11:24:59.441Z,16.70
2019-05-25T11:27:28.708Z,16.50
2019-05-25T11:30:08.607Z,16.60
2019-05-25T11:32:28.941Z,16.80
2019-05-25T11:34:58.121Z,16.80
2019-05-25T11:37:27.350Z,17.00
2019-05-25T11:39:56.549Z,17.10
2019-05-25T11:42:25.702Z,17.00
2019-05-25T11:44:54.877Z,16.90
2019-05-25T11:47:24.037Z,17.10
2019-05-25T11:49:53.164Z,17.00
2019-05-25T11:52:22.261Z,17.10
2019-05-25T11:54:51.417Z,17.30
2019-05-25T11:57:20.793Z,17.00
2019-05-25T11:59:49.881Z,16.90
2019-05-25T12:02:19.309Z,16.80
2019-05-25T12:04:48.562Z,17.10
2019-05-25T12:07:18.041Z,17.30
2019-05-25T12:09:47.309Z,17.50
2019-05-25T12:12:16.456Z,17.40
2019-05-25T12:14:45.637Z,17.40
2019-05-25T12:17:14.774Z,17.30
2019-05-25T12:19:43.963Z,17.30
2019-05-25T12:22:13.175Z,17.20
2019-05-25T12:24:42.341Z,17.40
2019-05-25T12:27:13.931Z,17.80
2019-05-25T12:29:43.097Z,18.10
2019-05-25T12:32:12.405Z,18.30
2019-05-25T12:34:41.493Z,18.60
2019-05-25T12:37:10.685Z,18.40
2019-05-25T12:39:39.796Z,18.50
2019-05-25T12:42:08.961Z,18.40
2019-05-25T12:44:38.120Z,18.10
2019-05-25T12:47:07.221Z,18.10
2019-05-25T12:49:50.161Z,18.00
2019-05-25T12:52:07.237Z,17.80
2019-05-25T12:54:36.402Z,17.90
2019-05-25T12:57:05.581Z,17.60
2019-05-25T12:59:34.757Z,17.60
2019-05-25T13:02:03.897Z,17.30
2019-05-25T13:04:33.067Z,17.40
2019-05-25T13:07:02.259Z,17.10
2019-05-25T13:09:31.421Z,17.00
2019-05-25T13:12:00.601Z,17.20
2019-05-25T13:14:29.713Z,17.40
2019-05-25T13:16:58.873Z,17.30
2019-05-25T13:19:28.045Z,17.30
2019-05-25T13:21:57.261Z,17.50
2019-05-25T13:24:26.370Z,17.60
2019-05-25T13:26:55.549Z,17.50
2019-05-25T13:29:24.771Z,17.40
2019-05-25T13:31:53.986Z,17.40
2019-05-25T13:34:23.149Z,17.40
2019-05-25T13:36:52.313Z,17.30
2019-05-25T13:39:21.501Z,17.00
2019-05-25T13:41:50.752Z,17.20
2019-05-25T13:44:20.115Z,17.20
2019-05-25T13:46:49.297Z,16.80
2019-05-25T13:49:18.618Z,16.70
2019-05-25T13:51:47.815Z,16.70
2019-05-25T13:54:17.234Z,17.10
2019-05-25T13:56:46.395Z,17.50
2019-05-25T13:59:15.565Z,17.60
2019-05-25T14:01:44.677Z,17.90
2019-05-25T14:04:13.826Z,17.80
2019-05-25T14:06:43.041Z,17.60
2019-05-25T14:09:15.629Z,17.70
2019-05-25T14:11:43.027Z,17.70
2019-05-25T14:14:12.201Z,17.90
2019-05-25T14:16:41.362Z,18.00
2019-05-25T14:19:10.469Z,18.40
2019-05-25T14:21:39.645Z,18.90
2019-05-25T14:24:08.905Z,19.20
2019-05-25T14:26:38.087Z,18.90
2019-05-25T14:29:07.246Z,18.70
2019-05-25T14:31:45.575Z,18.60
2019-05-25T14:34:07.345Z,18.60
2019-05-25T14:36:36.457Z,18.90
2019-05-25T14:39:07.501Z,19.30
2019-05-25T14:41:36.585Z,19.30
2019-05-25T14:44:05.709Z,19.40
2019-05-25T14:46:34.877Z,19.20
2019-05-25T14:49:04.083Z,18.80
2019-05-25T14:51:33.266Z,18.90
2019-05-25T14:54:02.432Z,18.80
2019-05-25T14:56:31.633Z,18.70
2019-05-25T14:59:00.798Z,18.60
2019-05-25T15:01:29.985Z,18.90
2019-05-25T15:03:59.234Z,18.90
2019-05-25T15:06:28.333Z,19.00
2019-05-25T15:08:57.491Z,19.00
2019-05-25T15:11:26.692Z,19.00
2019-05-25T15:13:55.863Z,18.80
2019-05-25T15:16:25.045Z,18.80
2019-05-25T15:18:54.237Z,18.90
2019-05-25T15:21:23.424Z,18.70
2019-05-25T15:23:52.686Z,18.90
2019-05-25T15:26:21.851Z,18.70
2019-05-25T15:28:51.177Z,18.50
2019-05-25T15:31:20.299Z,18.70
2019-05-25T15:33:49.474Z,19.10
2019-05-25T15:36:18.650Z,19.20
2019-05-25T15:38:47.865Z,19.40
2019-05-25T15:41:17.097Z,19.60
2019-05-25T15:43:46.249Z,19.80
2019-05-25T15:46:15.416Z,19.80
2019-05-25T15:48:44.649Z,19.50
2019-05-25T15:51:13.828Z,19.50
2019-05-25T15:53:42.916Z,19.50
2019-05-25T15:56:12.014Z,19.50
2019-05-25T15:58:41.191Z,19.20
2019-05-25T16:01:10.353Z,18.90
2019-05-25T16:03:39.573Z,19.00
2019-05-25T16:06:08.765Z,19.00
2019-05-25T16:08:37.866Z,19.20
2019-05-25T16:11:06.951Z,19.10
2019-05-25T16:13:36.157Z,18.70
2019-05-25T16:16:07.828Z,18.40
2019-05-25T16:18:39.877Z,18.20
2019-05-25T16:21:09.069Z,18.20
2019-05-25T16:23:38.278Z,18.10
2019-05-25T16:26:07.371Z,18.10
2019-05-25T16:28:36.553Z,18.10
2019-05-25T16:31:05.711Z,18.40
2019-05-25T16:33:34.909Z,18.40
2019-05-25T16:36:04.107Z,18.30
2019-05-25T16:38:33.273Z,18.20
2019-05-25T16:41:03.250Z,18.20
2019-05-25T16:43:32.353Z,18.20
2019-05-25T16:46:04.533Z,18.40
2019-05-25T16:48:33.929Z,18.00
2019-05-25T16:51:03.177Z,17.90
2019-05-25T16:53:32.341Z,17.70
2019-05-25T16:56:01.518Z,17.50
2019-05-25T16:58:30.691Z,17.20
2019-05-25T17:01:00.436Z,17.20
2019-05-25T17:03:29.613Z,17.10
2019-05-25T17:05:58.717Z,17.10
2019-05-25T17:08:29.724Z,17.10
2019-05-25T17:10:58.816Z,17.40
2019-05-25T17:13:28.001Z,17.70
2019-05-25T17:15:57.185Z,17.60
2019-05-25T17:18:26.366Z,17.70
2019-05-25T17:20:55.541Z,17.60
2019-05-25T17:23:24.633Z,17.60
2019-05-25T17:25:53.800Z,17.50
2019-05-25T17:28:22.898Z,17.40
2019-05-25T17:30:52.078Z,17.40
2019-05-25T17:33:21.238Z,17.30
2019-05-25T17:35:50.605Z,17.30
2019-05-25T17:38:19.795Z,17.30
2019-05-25T17:40:48.986Z,17.10
2019-05-25T17:43:18.365Z,17.00
2019-05-25T17:45:48.113Z,16.90
2019-05-25T17:48:17.261Z,16.90
2019-05-25T17:50:46.428Z,16.90
2019-05-25T17:53:15.595Z,16.70
2019-05-25T17:55:44.794Z,16.60
2019-05-25T17:58:13.949Z,16.40
2019-05-25T18:00:46.212Z,16.40
2019-05-25T18:03:15.411Z,16.30
2019-05-25T18:05:44.605Z,16.20
2019-05-25T18:08:13.765Z,16.10
2019-05-25T18:10:52.710Z,16.00
2019-05-25T18:13:13.778Z,15.90
2019-05-25T18:15:43.306Z,15.80
2019-05-25T18:18:12.473Z,15.70
2019-05-25T18:20:41.741Z,15.60
2019-05-25T18:23:10.916Z,15.50
2019-05-25T18:25:40.113Z,15.40
2019-05-25T18:28:09.277Z,15.30
2019-05-25T18:30:38.438Z,15.20
2019-05-25T18:33:07.901Z,15.10
2019-05-25T18:35:37.165Z,15.00
2019-05-25T18:38:06.298Z,14.80
2019-05-25T18:40:35.468Z,14.70
2019-05-25T18:43:04.633Z,14.60
2019-05-25T18:45:33.838Z,14.50
2019-05-25T18:48:02.999Z,14.40
2019-05-25T18:50:32.218Z,14.30
2019-05-25T18:53:01.393Z,14.30
2019-05-25T18:55:30.577Z,14.00
2019-05-25T18:57:59.749Z,14.00
2019-05-25T19:00:28.878Z,13.90
2019-05-25T19:02:58.182Z,13.70
2019-05-25T19:05:28.949Z,13.60
2019-05-25T19:08:00.257Z,13.60
2019-05-25T19:10:29.360Z,13.60
2019-05-25T19:12:58.482Z,13.50
2019-05-25T19:15:27.709Z,13.40
2019-05-25T19:17:56.888Z,13.30
2019-05-25T19:20:26.049Z,13.20
2019-05-25T19:22:57.522Z,13.10
2019-05-25T19:25:26.678Z,13.00
2019-05-25T19:27:55.897Z,12.90
2019-05-25T19:30:25.009Z,12.80
2019-05-25T19:32:54.174Z,12.70
2019-05-25T19:35:23.373Z,12.60
2019-05-25T19:37:52.557Z,12.50
2019-05-25T19:40:21.709Z,12.40
2019-05-25T19:42:50.895Z,12.40
2019-05-25T19:45:20.065Z,12.40
2019-05-25T19:47:49.165Z,12.30
2019-05-25T19:50:18.436Z,12.30
2019-05-25T19:52:47.625Z,12.20
2019-05-25T19:55:16.969Z,12.30
2019-05-25T19:57:46.082Z,12.20
2019-05-25T20:00:15.256Z,12.20
2019-05-25T20:02:44.497Z,12.20
2019-05-25T20:05:16.962Z,12.10
2019-05-25T20:07:44.498Z,12.10
2019-05-25T20:10:13.587Z,12.10
2019-05-25T20:12:42.781Z,12.10
2019-05-25T20:15:11.945Z,12.00
2019-05-25T20:17:41.121Z,12.00
2019-05-25T20:20:10.221Z,12.00
2019-05-25T20:22:39.325Z,12.00
2019-05-25T20:25:08.497Z,12.00
2019-05-25T20:27:37.620Z,11.90
2019-05-25T20:30:06.788Z,11.90
2019-05-25T20:32:35.965Z,11.90
2019-05-25T20:35:05.313Z,11.90
2019-05-25T20:37:35.673Z,11.90
2019-05-25T20:40:05.402Z,11.90
2019-05-25T20:42:34.625Z,11.80
2019-05-25T20:45:03.767Z,11.90
2019-05-25T20:47:34.978Z,11.80
2019-05-25T20:50:04.450Z,11.90
2019-05-25T20:52:33.647Z,11.90
2019-05-25T20:55:05.919Z,11.90
2019-05-25T20:57:35.130Z,11.90
2019-05-25T21:00:04.478Z,11.90
2019-05-25T21:02:33.712Z,12.00
2019-05-25T21:05:02.881Z,11.90
2019-05-25T21:07:32.196Z,12.00
2019-05-25T21:10:01.430Z,11.90
2019-05-25T21:12:30.926Z,11.90
2019-05-25T21:15:00.043Z,11.90
2019-05-25T21:17:29.213Z,11.90
2019-05-25T21:19:58.402Z,11.90
2019-05-25T21:22:27.702Z,11.90
2019-05-25T21:24:56.877Z,11.90
2019-05-25T21:27:26.128Z,12.00
2019-05-25T21:29:55.378Z,12.00
2019-05-25T21:32:24.588Z,12.00
2019-05-25T21:34:53.773Z,12.00
2019-05-25T21:37:22.945Z,12.00
2019-05-25T21:39:52.142Z,12.00
2019-05-25T21:42:21.297Z,12.00
2019-05-25T21:44:50.412Z,11.90
2019-05-25T21:47:19.793Z,12.00
2019-05-25T21:49:48.881Z,12.00
2019-05-25T21:52:18.117Z,11.90
2019-05-25T21:54:47.359Z,11.90
2019-05-25T21:57:16.534Z,11.90
2019-05-25T21:59:45.787Z,11.90
2019-05-25T22:02:17.625Z,11.90
2019-05-25T22:04:46.990Z,11.90
2019-05-25T22:07:16.182Z,11.90
2019-05-25T22:09:45.377Z,11.90
2019-05-25T22:12:14.488Z,12.00
2019-05-25T22:14:43.590Z,11.90
2019-05-25T22:17:12.750Z,11.90
2019-05-25T22:19:41.913Z,11.90
2019-05-25T22:22:11.110Z,11.90
2019-05-25T22:24:40.320Z,11.90
2019-05-25T22:27:09.490Z,11.90
2019-05-25T22:29:38.666Z,11.80
2019-05-25T22:32:07.765Z,11.80
2019-05-25T22:34:36.949Z,11.80
2019-05-25T22:37:06.117Z,11.80
2019-05-25T22:39:35.241Z,11.90
2019-05-25T22:42:04.329Z,11.80
2019-05-25T22:44:33.505Z,11.80
2019-05-25T22:47:02.615Z,11.80
2019-05-25T22:49:31.769Z,11.80
2019-05-25T22:52:00.877Z,11.80
2019-05-25T22:54:30.057Z,11.70
2019-05-25T22:56:59.221Z,11.70
2019-05-25T22:59:28.388Z,11.70
2019-05-25T23:01:57.549Z,11.70
2019-05-25T23:04:26.717Z,11.70
2019-05-25T23:06:58.243Z,11.70
2019-05-25T23:09:26.741Z,11.70
2019-05-25T23:11:55.899Z,11.70
2019-05-25T23:14:25.069Z,11.70
2019-05-25T23:16:54.248Z,11.70
2019-05-25T23:19:23.345Z,11.60
2019-05-25T23:21:52.525Z,11.60
2019-05-25T23:24:21.685Z,11.60
2019-05-25T23:26:50.805Z,11.60
2019-05-25T23:29:20.129Z,11.50
2019-05-25T23:31:49.293Z,11.50
2019-05-25T23:34:18.580Z,11.50
2019-05-25T23:36:47.757Z,11.50
2019-05-25T23:39:16.962Z,11.50
2019-05-25T23:41:46.143Z,11.50
2019-05-25T23:44:15.301Z,11.50
2019-05-25T23:46:44.489Z,11.50
2019-05-25T23:49:13.629Z,11.40
2019-05-25T23:51:42.813Z,11.40
2019-05-25T23:54:11.918Z,11.30
2019-05-25T23:56:41.080Z,11.20
2019-05-25T23:59:10.249Z,11.20
